Time;durP1;ratioP1;P1;durP2;ratioP2;P2;SDS_P1;SDS_P2;PMS_P1;PMS_P2;Temp;Humidity;BMP_temperature;BMP_pressure;BME280_temperature;BME280_humidity;BME280_pressure;Samples;Min_cycle;Max_cycle;Signal;HPM_P1;HPM_P2
2022/05/15 00:01:29;;;;;;;6.93;5.53;;;;;;;;;;7396898;19;20135;-81
2022/05/15 00:03:55;;;;;;;7.57;5.27;;;;;;;;;;7392076;19;20141;-79
2022/05/15 00:06:21;;;;;;;6.70;5.43;;;;;;;;;;7391893;19;20145;-79
2022/05/15 00:08:47;;;;;;;6.97;5.40;;;;;;;;;;7389372;19;20140;-80
2022/05/15 00:11:17;;;;;;;7.93;4.40;;;;;;;;;;7386314;19;20136;-79
2022/05/15 00:13:43;;;;;;;6.83;5.27;;;;;;;;;;7384457;19;20141;-79
2022/05/15 00:16:09;;;;;;;5.73;4.43;;;;;;;;;;7380889;19;20189;-79
2022/05/15 00:18:35;;;;;;;7.30;4.67;;;;;;;;;;7383291;19;20133;-79
2022/05/15 00:21:01;;;;;;;4.83;4.00;;;;;;;;;;7384592;19;20223;-79
2022/05/15 00:23:27;;;;;;;7.03;4.70;;;;;;;;;;7378961;19;20644;-80
2022/05/15 00:25:53;;;;;;;6.20;4.13;;;;;;;;;;7388470;19;20211;-79
2022/05/15 00:28:20;;;;;;;5.53;4.27;;;;;;;;;;7378370;19;20492;-79
2022/05/15 00:30:46;;;;;;;5.93;3.80;;;;;;;;;;7385752;19;20129;-78
2022/05/15 00:33:12;;;;;;;5.37;3.80;;;;;;;;;;7385018;19;20133;-79
2022/05/15 00:35:38;;;;;;;7.07;4.27;;;;;;;;;;7381404;19;20188;-79
2022/05/15 00:38:09;;;;;;;5.23;4.33;;;;;;;;;;7388459;19;20156;-78
2022/05/15 00:40:38;;;;;;;6.33;4.07;;;;;;;;;;7389901;19;20148;-79
2022/05/15 00:43:04;;;;;;;6.83;4.33;;;;;;;;;;7386817;19;20164;-80
2022/05/15 00:45:30;;;;;;;9.00;5.33;;;;;;;;;;7387321;19;20152;-79
2022/05/15 00:47:57;;;;;;;9.13;5.30;;;;;;;;;;7390864;19;20141;-80
2022/05/15 00:50:25;;;;;;;5.53;4.00;;;;;;;;;;7390429;19;20149;-80
2022/05/15 00:52:54;;;;;;;4.73;3.90;;;;;;;;;;7393740;19;20480;-79
2022/05/15 00:55:25;;;;;;;5.90;4.27;;;;;;;;;;7389369;19;20529;-79
2022/05/15 00:57:56;;;;;;;5.23;3.87;;;;;;;;;;7390527;19;20593;-80
2022/05/15 01:00:26;;;;;;;5.87;3.80;;;;;;;;;;7385199;19;20155;-79
2022/05/15 01:03:05;;;;;;;7.80;3.83;;;;;;;;;;7389029;19;20136;-79
2022/05/15 01:05:36;;;;;;;8.53;4.33;;;;;;;;;;7386646;19;20226;-79
2022/05/15 01:08:01;;;;;;;5.50;3.83;;;;;;;;;;7382458;19;20160;-79
2022/05/15 01:10:28;;;;;;;6.00;3.70;;;;;;;;;;7383449;19;20133;-79
2022/05/15 01:12:54;;;;;;;6.07;3.47;;;;;;;;;;7382616;19;20159;-78
2022/05/15 01:15:22;;;;;;;5.63;4.20;;;;;;;;;;7382083;19;20168;-79
2022/05/15 01:17:48;;;;;;;5.97;3.70;;;;;;;;;;7372951;19;20140;-79
2022/05/15 01:20:16;;;;;;;4.43;3.40;;;;;;;;;;7381877;19;20133;-79
2022/05/15 01:22:42;;;;;;;6.23;3.60;;;;;;;;;;7380361;19;20144;-79
2022/05/15 01:25:14;;;;;;;5.47;4.00;;;;;;;;;;7381149;19;20212;-80
2022/05/15 01:27:40;;;;;;;7.03;3.93;;;;;;;;;;7378101;19;20125;-79
2022/05/15 01:30:07;;;;;;;6.50;3.77;;;;;;;;;;7380934;19;20169;-79
2022/05/15 01:32:33;;;;;;;7.23;3.93;;;;;;;;;;7383087;19;20618;-78
2022/05/15 01:34:59;;;;;;;4.90;3.80;;;;;;;;;;7383242;19;20145;-78
2022/05/15 01:37:25;;;;;;;5.40;3.70;;;;;;;;;;7373160;19;20125;-79
2022/05/15 01:39:51;;;;;;;6.87;3.63;;;;;;;;;;7379961;19;20129;-80
2022/05/15 01:42:17;;;;;;;5.90;4.17;;;;;;;;;;7384748;19;20133;-79
2022/05/15 01:44:43;;;;;;;7.70;4.07;;;;;;;;;;7369194;19;20165;-79
2022/05/15 01:47:09;;;;;;;7.13;4.40;;;;;;;;;;7377690;19;20641;-79
2022/05/15 01:49:36;;;;;;;6.47;4.00;;;;;;;;;;7380103;19;20173;-79
2022/05/15 01:52:03;;;;;;;5.53;4.30;;;;;;;;;;7378933;19;20167;-78
2022/05/15 01:54:29;;;;;;;5.23;3.97;;;;;;;;;;7387395;19;20179;-79
2022/05/15 01:56:55;;;;;;;7.80;4.10;;;;;;;;;;7382243;19;20602;-79
2022/05/15 01:59:21;;;;;;;6.13;4.13;;;;;;;;;;7389780;19;20225;-77
2022/05/15 02:01:47;;;;;;;7.13;4.00;;;;;;;;;;7391425;19;20467;-78
2022/05/15 02:04:13;;;;;;;7.47;4.43;;;;;;;;;;7385870;19;20133;-77
2022/05/15 02:06:40;;;;;;;5.83;4.20;;;;;;;;;;7383845;19;20171;-78
2022/05/15 02:09:07;;;;;;;5.33;4.10;;;;;;;;;;7391626;19;20225;-78
2022/05/15 02:11:34;;;;;;;5.70;4.70;;;;;;;;;;7389635;19;20716;-78
2022/05/15 02:14:00;;;;;;;9.33;4.17;;;;;;;;;;7376692;19;20168;-78
2022/05/15 02:16:26;;;;;;;5.83;4.20;;;;;;;;;;7387167;19;20177;-77
2022/05/15 02:18:52;;;;;;;6.30;4.53;;;;;;;;;;7393914;19;20140;-79
2022/05/15 02:21:18;;;;;;;6.17;4.27;;;;;;;;;;7390474;19;20177;-78
2022/05/15 02:23:44;;;;;;;4.80;4.23;;;;;;;;;;7383477;19;20113;-78
2022/05/15 02:26:10;;;;;;;8.60;4.33;;;;;;;;;;7386052;19;20196;-78
2022/05/15 02:28:38;;;;;;;5.13;4.13;;;;;;;;;;7387825;19;20121;-79
2022/05/15 02:31:04;;;;;;;5.53;3.83;;;;;;;;;;7388685;19;20137;-77
2022/05/15 02:33:30;;;;;;;4.57;4.10;;;;;;;;;;7387674;19;20678;-78
2022/05/15 02:35:56;;;;;;;6.23;4.43;;;;;;;;;;7383833;19;20176;-81
2022/05/15 02:38:22;;;;;;;4.57;4.10;;;;;;;;;;7385205;19;20517;-80
2022/05/15 02:40:48;;;;;;;4.50;4.10;;;;;;;;;;7383349;19;20121;-78
2022/05/15 02:43:14;;;;;;;5.10;4.03;;;;;;;;;;7381422;19;20137;-78
2022/05/15 02:45:40;;;;;;;7.33;4.20;;;;;;;;;;7379525;19;20497;-78
2022/05/15 02:51:03;;;;;;;7.27;4.20;;;;;;;;;;7392428;19;20148;-79
2022/05/15 02:51:04;;;;;;;4.83;3.87;;;;;;;;;;7393065;19;20154;-78
2022/05/15 02:53:35;;;;;;;4.63;4.13;;;;;;;;;;7386155;19;20156;-78
2022/05/15 02:56:02;;;;;;;5.10;4.50;;;;;;;;;;7391696;19;20180;-77
2022/05/15 02:58:28;;;;;;;9.13;5.10;;;;;;;;;;7387303;19;20145;-78
2022/05/15 03:00:56;;;;;;;6.20;4.73;;;;;;;;;;7368269;19;20184;-80
2022/05/15 03:03:22;;;;;;;4.47;4.07;;;;;;;;;;7382368;19;20156;-80
2022/05/15 03:05:48;;;;;;;5.73;4.37;;;;;;;;;;7380010;19;20165;-79
2022/05/15 03:08:14;;;;;;;5.10;4.20;;;;;;;;;;7387547;19;20179;-78
2022/05/15 03:10:40;;;;;;;5.90;4.87;;;;;;;;;;7386044;19;20140;-78
2022/05/15 03:13:06;;;;;;;5.67;3.97;;;;;;;;;;7382168;19;20139;-78
2022/05/15 03:15:32;;;;;;;5.60;4.23;;;;;;;;;;7387205;19;20437;-78
2022/05/15 03:17:58;;;;;;;7.40;4.60;;;;;;;;;;7391375;19;20125;-78
2022/05/15 03:20:27;;;;;;;7.53;5.13;;;;;;;;;;7390109;19;20137;-79
2022/05/15 03:22:53;;;;;;;5.23;3.90;;;;;;;;;;7389900;19;20233;-78
2022/05/15 03:25:19;;;;;;;6.97;4.10;;;;;;;;;;7387198;19;20177;-79
2022/05/15 03:27:45;;;;;;;5.17;4.37;;;;;;;;;;7386544;19;20133;-85
2022/05/15 03:30:12;;;;;;;7.57;4.50;;;;;;;;;;7383385;19;20195;-81
2022/05/15 03:32:41;;;;;;;5.07;4.00;;;;;;;;;;7387549;19;20165;-81
2022/05/15 03:35:08;;;;;;;6.70;4.40;;;;;;;;;;7382533;19;20145;-78
2022/05/15 03:37:35;;;;;;;5.80;4.10;;;;;;;;;;7386550;19;20133;-78
2022/05/15 03:40:01;;;;;;;6.07;4.37;;;;;;;;;;7384603;19;20505;-78
2022/05/15 03:42:27;;;;;;;7.30;4.60;;;;;;;;;;7384780;19;20156;-78
2022/05/15 03:44:54;;;;;;;6.67;4.23;;;;;;;;;;7387023;19;20168;-78
2022/05/15 03:47:20;;;;;;;5.30;4.40;;;;;;;;;;7391005;19;20129;-78
2022/05/15 03:49:47;;;;;;;4.93;4.30;;;;;;;;;;7382873;19;20153;-79
2022/05/15 03:52:14;;;;;;;6.20;4.50;;;;;;;;;;7384940;19;20532;-78
2022/05/15 03:54:41;;;;;;;6.37;4.50;;;;;;;;;;7377299;19;20181;-77
2022/05/15 03:57:07;;;;;;;7.53;4.30;;;;;;;;;;7387750;19;20628;-78
2022/05/15 03:59:37;;;;;;;7.37;4.27;;;;;;;;;;7384785;19;20148;-78
2022/05/15 04:02:04;;;;;;;5.60;4.43;;;;;;;;;;7387192;19;20169;-78
2022/05/15 04:04:30;;;;;;;8.43;4.30;;;;;;;;;;7385462;19;20178;-79
2022/05/15 04:06:57;;;;;;;4.60;4.13;;;;;;;;;;7389093;19;20149;-78
2022/05/15 04:09:23;;;;;;;7.73;4.30;;;;;;;;;;7379718;19;20156;-82
2022/05/15 04:11:50;;;;;;;9.97;4.87;;;;;;;;;;7377028;19;20160;-78
2022/05/15 04:14:16;;;;;;;6.37;4.30;;;;;;;;;;7380689;19;20148;-78
2022/05/15 04:16:43;;;;;;;5.23;4.17;;;;;;;;;;7381379;19;20128;-78
2022/05/15 04:19:09;;;;;;;4.73;3.90;;;;;;;;;;7388108;19;20148;-78
2022/05/15 04:21:40;;;;;;;7.07;4.60;;;;;;;;;;7384148;19;20156;-78
2022/05/15 04:24:16;;;;;;;7.57;4.77;;;;;;;;;;7381758;19;20164;-78
2022/05/15 04:26:43;;;;;;;9.33;4.73;;;;;;;;;;7367745;19;20267;-78
2022/05/15 04:29:09;;;;;;;6.77;4.90;;;;;;;;;;7378480;19;20160;-78
2022/05/15 04:31:35;;;;;;;7.10;4.50;;;;;;;;;;7382401;19;20229;-79
2022/05/15 04:34:02;;;;;;;5.77;4.97;;;;;;;;;;7375077;19;20469;-78
2022/05/15 04:36:28;;;;;;;5.63;4.83;;;;;;;;;;7379011;19;20155;-79
2022/05/15 04:38:54;;;;;;;5.97;4.30;;;;;;;;;;7387397;19;20200;-78
2022/05/15 04:41:21;;;;;;;6.77;4.90;;;;;;;;;;7357813;19;20165;-78
2022/05/15 04:43:47;;;;;;;7.67;4.00;;;;;;;;;;7385635;19;20158;-78
2022/05/15 04:46:13;;;;;;;7.13;4.33;;;;;;;;;;7388657;19;20152;-78
2022/05/15 04:48:39;;;;;;;6.13;4.33;;;;;;;;;;7384299;19;20632;-78
2022/05/15 04:51:05;;;;;;;5.40;4.07;;;;;;;;;;7387305;19;20638;-79
2022/05/15 04:53:31;;;;;;;7.60;4.53;;;;;;;;;;7380417;19;20135;-78
2022/05/15 04:55:58;;;;;;;5.03;4.00;;;;;;;;;;7380433;19;20185;-79
2022/05/15 04:58:24;;;;;;;7.80;4.13;;;;;;;;;;7378291;19;20156;-78
2022/05/15 05:00:50;;;;;;;4.47;4.07;;;;;;;;;;7379761;19;20144;-79
2022/05/15 05:03:17;;;;;;;5.90;4.27;;;;;;;;;;7378056;19;20156;-80
2022/05/15 05:05:43;;;;;;;5.70;4.00;;;;;;;;;;7381536;19;20189;-78
2022/05/15 05:08:10;;;;;;;6.30;4.30;;;;;;;;;;7374585;19;20125;-79
2022/05/15 05:10:36;;;;;;;5.80;3.90;;;;;;;;;;7370569;19;20152;-79
2022/05/15 05:13:02;;;;;;;9.03;4.47;;;;;;;;;;7375612;19;20145;-78
2022/05/15 05:15:28;;;;;;;6.67;4.43;;;;;;;;;;7380341;19;20182;-78
2022/05/15 05:17:55;;;;;;;5.30;3.77;;;;;;;;;;7384421;19;20153;-80
2022/05/15 05:20:21;;;;;;;5.83;4.27;;;;;;;;;;7389569;19;20156;-79
2022/05/15 05:22:47;;;;;;;6.27;4.30;;;;;;;;;;7378000;19;20601;-79
2022/05/15 05:25:13;;;;;;;4.40;4.00;;;;;;;;;;7381047;19;20153;-79
2022/05/15 05:27:41;;;;;;;5.67;4.43;;;;;;;;;;7387014;19;20591;-81
2022/05/15 05:30:08;;;;;;;6.27;5.00;;;;;;;;;;7390221;19;20725;-79
2022/05/15 05:32:34;;;;;;;5.23;4.17;;;;;;;;;;7398827;19;20136;-80
2022/05/15 05:35:00;;;;;;;4.97;4.43;;;;;;;;;;7397678;19;20157;-80
2022/05/15 05:37:26;;;;;;;6.03;4.80;;;;;;;;;;7397351;19;20172;-79
2022/05/15 05:39:52;;;;;;;6.43;4.43;;;;;;;;;;7391973;19;20588;-82
2022/05/15 05:42:18;;;;;;;5.23;4.67;;;;;;;;;;7382641;19;20141;-80
2022/05/15 05:44:44;;;;;;;6.70;4.93;;;;;;;;;;7395527;19;20172;-79
2022/05/15 05:47:10;;;;;;;5.23;4.27;;;;;;;;;;7397401;19;20128;-80
2022/05/15 05:49:36;;;;;;;6.07;4.90;;;;;;;;;;7394119;19;20162;-81
2022/05/15 05:52:03;;;;;;;5.73;4.30;;;;;;;;;;7399467;19;20117;-81
2022/05/15 05:54:29;;;;;;;7.10;4.47;;;;;;;;;;7419179;19;20145;-80
2022/05/15 05:56:55;;;;;;;6.20;4.60;;;;;;;;;;7419293;19;20130;-81
2022/05/15 05:59:21;;;;;;;6.87;5.53;;;;;;;;;;7421500;19;20838;-81
2022/05/15 06:01:47;;;;;;;5.23;4.17;;;;;;;;;;7425918;19;20133;-81
2022/05/15 06:09:27;;;;;;;6.67;4.73;;;;;;;;;;7380270;19;20208;-80
2022/05/15 06:11:53;;;;;;;5.83;5.23;;;;;;;;;;7388718;19;20204;-79
2022/05/15 18:09:16;;;;;;;7.03;3.45;;;;;;;;;;7401133;19;20206;-87
2022/05/15 18:11:43;;;;;;;5.30;3.45;;;;;;;;;;7403219;19;20125;-87
2022/05/15 18:14:10;;;;;;;5.10;3.25;;;;;;;;;;7398843;19;20149;-87
2022/05/15 18:16:36;;;;;;;5.03;3.67;;;;;;;;;;7396985;19;20181;-87
2022/05/15 18:19:09;;;;;;;5.43;3.75;;;;;;;;;;7399012;19;20157;-86
2022/05/15 18:21:36;;;;;;;5.45;3.92;;;;;;;;;;7394395;19;20660;-90
2022/05/15 18:24:03;;;;;;;5.70;3.90;;;;;;;;;;7391200;19;20164;-91
2022/05/15 18:26:29;;;;;;;6.78;4.22;;;;;;;;;;7400504;19;20149;-90
2022/05/15 18:28:56;;;;;;;5.50;4.78;;;;;;;;;;7399940;19;20161;-88
2022/05/15 18:31:22;;;;;;;5.70;4.53;;;;;;;;;;7402904;19;20149;-87
2022/05/15 18:33:48;;;;;;;5.95;4.28;;;;;;;;;;7407204;19;20160;-87
2022/05/15 18:36:14;;;;;;;6.28;4.38;;;;;;;;;;7407336;19;20172;-87
2022/05/15 18:38:40;;;;;;;6.65;4.72;;;;;;;;;;7405686;19;20184;-87
2022/05/15 18:41:06;;;;;;;6.40;4.50;;;;;;;;;;7398165;19;20148;-87
2022/05/15 18:43:33;;;;;;;6.72;4.75;;;;;;;;;;7400829;19;20141;-86
2022/05/15 18:45:59;;;;;;;6.00;4.43;;;;;;;;;;7402559;19;20175;-87
2022/05/15 18:48:25;;;;;;;5.90;4.57;;;;;;;;;;7406530;19;20133;-88
2022/05/15 18:56:21;;;;;;;4.75;4.32;;;;;;;;;;7408240;19;20169;-89
2022/05/15 18:58:47;;;;;;;5.70;4.47;;;;;;;;;;7406924;19;20129;-86
2022/05/15 19:01:13;;;;;;;4.85;4.43;;;;;;;;;;7403887;19;20154;-92
2022/05/15 19:03:40;;;;;;;6.93;4.55;;;;;;;;;;7401587;19;20149;-87
2022/05/15 19:06:06;;;;;;;5.72;4.32;;;;;;;;;;7403613;19;20168;-89
2022/05/15 19:08:32;;;;;;;5.93;4.55;;;;;;;;;;7407024;19;20610;-89
2022/05/15 19:11:18;;;;;;;5.65;4.32;;;;;;;;;;7401174;19;20152;-89
2022/05/15 19:13:51;;;;;;;5.57;4.43;;;;;;;;;;7400143;19;20121;-89
2022/05/15 19:16:48;;;;;;;6.38;4.70;;;;;;;;;;7397352;19;20149;-88
2022/05/15 19:22:17;;;;;;;5.40;4.82;;;;;;;;;;7399079;19;20145;-90
2022/05/15 19:28:02;;;;;;;7.82;4.60;;;;;;;;;;7392318;19;20200;-78
2022/05/15 19:30:28;;;;;;;7.47;5.35;;;;;;;;;;7382514;19;20839;-79
2022/05/15 19:32:54;;;;;;;8.10;5.20;;;;;;;;;;7390864;19;20144;-78
2022/05/15 19:35:20;;;;;;;7.03;5.50;;;;;;;;;;7387803;19;20252;-77
2022/05/15 19:37:46;;;;;;;6.80;5.72;;;;;;;;;;7392834;19;20137;-78
2022/05/15 19:40:12;;;;;;;9.05;5.68;;;;;;;;;;7389422;19;20125;-78
2022/05/15 19:42:38;;;;;;;8.50;6.43;;;;;;;;;;7387875;19;20148;-78
2022/05/15 19:45:05;;;;;;;8.27;7.40;;;;;;;;;;7386182;19;20205;-76
2022/05/15 19:47:32;;;;;;;12.05;7.43;;;;;;;;;;7384067;19;20161;-77
2022/05/15 19:49:58;;;;;;;7.07;6.38;;;;;;;;;;7394103;19;20133;-77
2022/05/15 19:52:25;;;;;;;8.60;6.63;;;;;;;;;;7398593;19;20168;-77
2022/05/15 19:54:51;;;;;;;8.95;6.47;;;;;;;;;;7389373;19;20288;-78
2022/05/15 19:57:17;;;;;;;10.65;6.53;;;;;;;;;;7385082;19;20654;-78
2022/05/15 19:59:43;;;;;;;8.13;6.53;;;;;;;;;;7382562;19;20149;-77
2022/05/15 20:02:13;;;;;;;14.13;6.95;;;;;;;;;;7372504;19;20153;-77
2022/05/15 20:12:54;;;;;;;6.68;3.13;;;;;;;;;;7381269;19;20614;-78
2022/05/15 20:15:20;;;;;;;2.58;2.38;;;;;;;;;;7375988;19;20234;-77
2022/05/15 20:17:46;;;;;;;7.05;2.50;;;;;;;;;;7375069;19;20603;-77
2022/05/15 20:20:13;;;;;;;3.70;2.47;;;;;;;;;;7390656;19;20125;-77
2022/05/15 20:22:39;;;;;;;6.18;2.30;;;;;;;;;;7380491;19;20113;-79
2022/05/15 20:25:05;;;;;;;6.53;3.05;;;;;;;;;;7391045;19;20153;-78
2022/05/15 20:27:32;;;;;;;7.80;2.25;;;;;;;;;;7387263;19;20433;-77
2022/05/15 20:29:58;;;;;;;4.90;2.30;;;;;;;;;;7384245;19;20168;-79
2022/05/15 20:32:24;;;;;;;2.95;2.00;;;;;;;;;;7388345;19;20113;-78
2022/05/15 20:34:50;;;;;;;3.53;2.17;;;;;;;;;;7389123;19;20168;-79
2022/05/15 20:37:16;;;;;;;3.63;2.47;;;;;;;;;;7390308;19;20132;-78
2022/05/15 20:39:42;;;;;;;5.28;2.53;;;;;;;;;;7388433;19;20156;-79
2022/05/15 20:42:08;;;;;;;4.25;2.60;;;;;;;;;;7379457;19;20475;-77
2022/05/15 20:44:34;;;;;;;4.03;2.53;;;;;;;;;;7388306;19;20152;-79
2022/05/15 20:47:01;;;;;;;4.43;2.67;;;;;;;;;;7388798;19;20942;-78
2022/05/15 20:49:27;;;;;;;4.82;2.80;;;;;;;;;;7389631;19;20133;-79
2022/05/15 20:51:53;;;;;;;4.05;2.92;;;;;;;;;;7388853;19;20152;-80
2022/05/15 20:54:20;;;;;;;7.07;3.08;;;;;;;;;;7382451;19;20163;-79
2022/05/15 20:56:47;;;;;;;3.65;2.90;;;;;;;;;;7390908;19;20601;-79
2022/05/15 20:59:13;;;;;;;3.17;2.88;;;;;;;;;;7384687;19;20146;-81
2022/05/15 21:01:40;;;;;;;3.75;2.42;;;;;;;;;;7381238;19;20152;-79
2022/05/15 21:04:06;;;;;;;2.60;2.40;;;;;;;;;;7415142;19;20160;-77
2022/05/15 21:06:33;;;;;;;3.47;2.45;;;;;;;;;;7422967;19;20150;-77
2022/05/15 21:08:59;;;;;;;3.15;2.13;;;;;;;;;;7422315;19;20673;-78
2022/05/15 21:11:25;;;;;;;2.40;2.00;;;;;;;;;;7421324;19;20153;-77
2022/05/15 21:13:51;;;;;;;3.58;2.30;;;;;;;;;;7398300;19;20185;-79
2022/05/15 21:16:17;;;;;;;4.90;1.98;;;;;;;;;;7386523;19;20553;-78
2022/05/15 21:18:45;;;;;;;3.05;1.45;;;;;;;;;;7383792;19;20556;-79
2022/05/15 21:21:11;;;;;;;3.10;2.17;;;;;;;;;;7387070;19;20152;-79
2022/05/15 21:23:37;;;;;;;3.72;2.38;;;;;;;;;;7389411;19;20152;-79
2022/05/15 21:26:04;;;;;;;2.72;1.88;;;;;;;;;;7389339;19;20159;-79
2022/05/15 21:28:30;;;;;;;4.90;1.85;;;;;;;;;;7393395;19;20663;-81
2022/05/15 21:30:56;;;;;;;2.88;1.75;;;;;;;;;;7387082;19;20164;-83
2022/05/15 21:33:22;;;;;;;3.10;2.20;;;;;;;;;;7390336;19;20149;-82
2022/05/15 21:35:48;;;;;;;4.23;1.73;;;;;;;;;;7393985;19;20141;-82
2022/05/15 21:44:05;;;;;;;3.90;1.70;;;;;;;;;;7386574;19;20145;-80
2022/05/15 21:46:31;;;;;;;3.70;1.87;;;;;;;;;;7388752;19;20244;-82
2022/05/15 21:48:57;;;;;;;3.80;1.70;;;;;;;;;;7388446;19;20160;-82
2022/05/15 21:51:24;;;;;;;1.73;1.60;;;;;;;;;;7394290;19;20133;-80
2022/05/15 21:53:51;;;;;;;3.33;1.70;;;;;;;;;;7388983;19;20144;-77
2022/05/15 21:56:18;;;;;;;24.83;1.53;;;;;;;;;;7385330;19;20201;-80
2022/05/15 22:00:01;;;;;;;1.93;1.17;;;;;;;;;;7386857;19;20157;-79
2022/05/15 22:01:30;;;;;;;2.93;1.80;;;;;;;;;;7390525;19;20155;-81
2022/05/15 22:03:56;;;;;;;1.60;1.50;;;;;;;;;;7384882;19;20160;-80
2022/05/15 22:06:22;;;;;;;1.90;1.43;;;;;;;;;;7391335;19;20202;-81
2022/05/15 22:08:48;;;;;;;1.20;1.10;;;;;;;;;;7394855;19;20145;-81
2022/05/15 22:11:14;;;;;;;1.50;1.40;;;;;;;;;;7393752;19;20551;-80
2022/05/15 22:13:40;;;;;;;2.77;1.30;;;;;;;;;;7399150;19;20147;-80
2022/05/15 22:16:08;;;;;;;3.13;2.00;;;;;;;;;;7398284;19;20176;-81
2022/05/15 22:18:35;;;;;;;4.17;1.80;;;;;;;;;;7397603;19;20177;-80
2022/05/15 22:21:01;;;;;;;2.93;2.50;;;;;;;;;;7398752;19;20147;-79
2022/05/15 22:23:28;;;;;;;2.03;1.90;;;;;;;;;;7391666;19;20204;-81
2022/05/15 22:25:54;;;;;;;5.63;2.10;;;;;;;;;;7393700;19;20631;-80
2022/05/15 22:28:21;;;;;;;4.03;1.83;;;;;;;;;;7397047;19;20148;-79
2022/05/15 22:30:48;;;;;;;2.70;2.50;;;;;;;;;;7398370;19;20220;-79
2022/05/15 22:33:14;;;;;;;2.50;2.30;;;;;;;;;;7394649;19;20891;-81
2022/05/15 22:35:44;;;;;;;2.33;2.10;;;;;;;;;;7378087;19;20153;-80
2022/05/15 22:38:10;;;;;;;2.17;1.87;;;;;;;;;;7393013;19;20602;-80
2022/05/15 22:40:37;;;;;;;3.03;2.10;;;;;;;;;;7392719;19;21687;-78
2022/05/15 22:43:04;;;;;;;2.73;2.07;;;;;;;;;;7392879;19;20507;-81
2022/05/15 22:45:30;;;;;;;2.77;2.00;;;;;;;;;;7386500;19;20694;-80
2022/05/15 22:47:56;;;;;;;5.63;2.00;;;;;;;;;;7393475;19;20157;-78
2022/05/15 22:50:22;;;;;;;3.80;2.00;;;;;;;;;;7396158;19;20149;-78
2022/05/15 22:52:48;;;;;;;2.20;2.00;;;;;;;;;;7373069;19;20458;-78
2022/05/15 22:55:14;;;;;;;2.30;1.87;;;;;;;;;;7378687;19;20176;-78
2022/05/15 22:57:40;;;;;;;2.90;2.30;;;;;;;;;;7386220;19;20476;-78
2022/05/15 23:00:08;;;;;;;3.60;1.97;;;;;;;;;;7401847;19;20190;-79
2022/05/15 23:02:34;;;;;;;2.10;1.90;;;;;;;;;;7409287;19;20153;-78
2022/05/15 23:07:45;;;;;;;3.83;2.07;;;;;;;;;;7399728;19;20221;-80
2022/05/15 23:10:14;;;;;;;1.83;1.73;;;;;;;;;;7388706;19;20141;-80
2022/05/15 23:12:40;;;;;;;4.03;2.40;;;;;;;;;;7378901;19;20157;-79
2022/05/15 23:15:07;;;;;;;1.93;1.83;;;;;;;;;;7385211;19;20172;-78
2022/05/15 23:17:34;;;;;;;2.20;2.00;;;;;;;;;;7414205;19;20157;-80
2022/05/15 23:20:00;;;;;;;2.30;2.10;;;;;;;;;;7421647;19;20806;-82
2022/05/15 23:22:26;;;;;;;2.90;2.17;;;;;;;;;;7408200;19;20159;-80
2022/05/15 23:24:53;;;;;;;4.00;2.23;;;;;;;;;;7390809;19;20157;-80
2022/05/15 23:27:19;;;;;;;2.53;2.30;;;;;;;;;;7390941;19;20145;-79
2022/05/15 23:29:45;;;;;;;3.93;2.50;;;;;;;;;;7392697;19;20168;-80
2022/05/15 23:32:12;;;;;;;5.00;2.37;;;;;;;;;;7389601;19;20117;-79
2022/05/15 23:34:47;;;;;;;3.63;2.50;;;;;;;;;;7387824;19;20645;-80
2022/05/15 23:37:13;;;;;;;4.17;2.70;;;;;;;;;;7389012;19;20172;-78
2022/05/15 23:39:39;;;;;;;3.07;2.17;;;;;;;;;;7391758;19;20144;-79
2022/05/15 23:42:06;;;;;;;2.40;2.20;;;;;;;;;;7387003;19;20148;-79
2022/05/15 23:44:32;;;;;;;2.90;2.20;;;;;;;;;;7387032;19;20137;-80
2022/05/15 23:46:59;;;;;;;3.87;2.30;;;;;;;;;;7385170;19;20972;-80
2022/05/15 23:49:26;;;;;;;3.43;2.57;;;;;;;;;;7379984;19;20133;-78
2022/05/15 23:51:51;;;;;;;3.67;2.67;;;;;;;;;;7384823;19;20133;-80
2022/05/15 23:54:18;;;;;;;4.07;2.67;;;;;;;;;;7391107;19;20582;-80
2022/05/15 23:56:44;;;;;;;3.27;2.50;;;;;;;;;;7392638;19;20159;-78
2022/05/15 23:59:10;;;;;;;5.43;2.50;;;;;;;;;;7391132;19;20137;-79
